sensor_id;sensor_type;location;lat;lon;timestamp;P1;durP1;ratioP1;P2;durP2;ratioP2
59145;SDS011;44928;53.074;6.646;2022-11-21T00:00:34;33.53;;;20.40;;
59145;SDS011;44928;53.074;6.646;2022-11-21T00:03:00;32.85;;;18.35;;
59145;SDS011;44928;53.074;6.646;2022-11-21T00:05:27;29.35;;;17.67;;
59145;SDS011;44928;53.074;6.646;2022-11-21T00:07:54;26.95;;;16.27;;
59145;SDS011;44928;53.074;6.646;2022-11-21T00:10:20;29.33;;;17.55;;
59145;SDS011;44928;53.074;6.646;2022-11-21T00:12:48;25.67;;;16.50;;
59145;SDS011;44928;53.074;6.646;2022-11-21T00:17:44;25.80;;;14.85;;
59145;SDS011;44928;53.074;6.646;2022-11-21T00:20:09;24.88;;;14.93;;
59145;SDS011;44928;53.074;6.646;2022-11-21T00:22:36;24.60;;;15.63;;
59145;SDS011;44928;53.074;6.646;2022-11-21T00:25:02;25.58;;;14.82;;
59145;SDS011;44928;53.074;6.646;2022-11-21T00:27:28;23.30;;;14.63;;
59145;SDS011;44928;53.074;6.646;2022-11-21T00:29:53;24.15;;;13.73;;
59145;SDS011;44928;53.074;6.646;2022-11-21T00:32:19;21.85;;;14.40;;
59145;SDS011;44928;53.074;6.646;2022-11-21T00:34:45;22.77;;;14.27;;
59145;SDS011;44928;53.074;6.646;2022-11-21T00:37:11;21.33;;;13.75;;
59145;SDS011;44928;53.074;6.646;2022-11-21T00:39:36;20.38;;;13.10;;
59145;SDS011;44928;53.074;6.646;2022-11-21T00:42:02;21.42;;;13.10;;
59145;SDS011;44928;53.074;6.646;2022-11-21T00:44:28;21.63;;;13.55;;
59145;SDS011;44928;53.074;6.646;2022-11-21T00:46:54;21.55;;;13.88;;
59145;SDS011;44928;53.074;6.646;2022-11-21T00:49:19;21.80;;;14.18;;
59145;SDS011;44928;53.074;6.646;2022-11-21T00:51:45;20.02;;;12.82;;
59145;SDS011;44928;53.074;6.646;2022-11-21T00:54:11;19.70;;;12.68;;
59145;SDS011;44928;53.074;6.646;2022-11-21T00:56:37;22.67;;;13.57;;
59145;SDS011;44928;53.074;6.646;2022-11-21T00:59:02;20.23;;;13.13;;
59145;SDS011;44928;53.074;6.646;2022-11-21T01:01:28;21.65;;;13.95;;
59145;SDS011;44928;53.074;6.646;2022-11-21T01:03:54;21.50;;;13.30;;
59145;SDS011;44928;53.074;6.646;2022-11-21T01:06:21;21.15;;;12.80;;
59145;SDS011;44928;53.074;6.646;2022-11-21T01:08:47;20.63;;;12.45;;
59145;SDS011;44928;53.074;6.646;2022-11-21T01:11:14;22.00;;;13.65;;
59145;SDS011;44928;53.074;6.646;2022-11-21T01:13:42;20.80;;;13.35;;
59145;SDS011;44928;53.074;6.646;2022-11-21T01:16:12;20.08;;;12.98;;
59145;SDS011;44928;53.074;6.646;2022-11-21T01:18:45;21.65;;;13.20;;
59145;SDS011;44928;53.074;6.646;2022-11-21T01:21:13;22.15;;;13.05;;
59145;SDS011;44928;53.074;6.646;2022-11-21T01:23:39;20.48;;;13.00;;
59145;SDS011;44928;53.074;6.646;2022-11-21T01:26:06;20.27;;;12.50;;
59145;SDS011;44928;53.074;6.646;2022-11-21T01:28:38;20.17;;;13.25;;
59145;SDS011;44928;53.074;6.646;2022-11-21T01:31:17;21.85;;;13.35;;
59145;SDS011;44928;53.074;6.646;2022-11-21T01:33:51;20.48;;;12.45;;
59145;SDS011;44928;53.074;6.646;2022-11-21T01:36:18;22.58;;;13.80;;
59145;SDS011;44928;53.074;6.646;2022-11-21T01:38:48;20.95;;;13.30;;
59145;SDS011;44928;53.074;6.646;2022-11-21T01:41:17;20.58;;;13.23;;
59145;SDS011;44928;53.074;6.646;2022-11-21T01:43:44;22.05;;;13.43;;
59145;SDS011;44928;53.074;6.646;2022-11-21T01:48:59;21.50;;;12.90;;
59145;SDS011;44928;53.074;6.646;2022-11-21T01:51:43;18.85;;;11.80;;
59145;SDS011;44928;53.074;6.646;2022-11-21T01:57:00;18.95;;;12.43;;
59145;SDS011;44928;53.074;6.646;2022-11-21T01:59:43;20.77;;;12.88;;
59145;SDS011;44928;53.074;6.646;2022-11-21T02:02:11;21.45;;;12.48;;
59145;SDS011;44928;53.074;6.646;2022-11-21T02:04:41;19.88;;;12.23;;
59145;SDS011;44928;53.074;6.646;2022-11-21T02:07:08;20.48;;;12.20;;
59145;SDS011;44928;53.074;6.646;2022-11-21T02:09:35;19.77;;;12.18;;
59145;SDS011;44928;53.074;6.646;2022-11-21T02:12:08;19.70;;;12.32;;
59145;SDS011;44928;53.074;6.646;2022-11-21T02:14:41;19.00;;;11.95;;
59145;SDS011;44928;53.074;6.646;2022-11-21T02:17:08;19.95;;;12.20;;
59145;SDS011;44928;53.074;6.646;2022-11-21T02:24:45;22.40;;;12.85;;
59145;SDS011;44928;53.074;6.646;2022-11-21T02:27:13;21.75;;;13.57;;
59145;SDS011;44928;53.074;6.646;2022-11-21T02:29:40;23.80;;;14.10;;
59145;SDS011;44928;53.074;6.646;2022-11-21T02:32:07;21.27;;;12.73;;
59145;SDS011;44928;53.074;6.646;2022-11-21T02:34:33;21.33;;;13.55;;
59145;SDS011;44928;53.074;6.646;2022-11-21T02:36:59;22.05;;;12.13;;
59145;SDS011;44928;53.074;6.646;2022-11-21T02:39:29;20.58;;;12.63;;
59145;SDS011;44928;53.074;6.646;2022-11-21T02:45:12;19.25;;;12.13;;
59145;SDS011;44928;53.074;6.646;2022-11-21T02:47:31;20.95;;;12.20;;
59145;SDS011;44928;53.074;6.646;2022-11-21T02:52:53;21.25;;;12.88;;
59145;SDS011;44928;53.074;6.646;2022-11-21T02:55:22;19.98;;;11.90;;
59145;SDS011;44928;53.074;6.646;2022-11-21T02:57:49;19.40;;;11.95;;
59145;SDS011;44928;53.074;6.646;2022-11-21T03:00:15;19.85;;;12.63;;
59145;SDS011;44928;53.074;6.646;2022-11-21T03:02:41;20.20;;;12.27;;
59145;SDS011;44928;53.074;6.646;2022-11-21T03:05:07;21.25;;;13.23;;
59145;SDS011;44928;53.074;6.646;2022-11-21T03:07:35;21.73;;;12.70;;
59145;SDS011;44928;53.074;6.646;2022-11-21T03:10:01;21.27;;;12.40;;
59145;SDS011;44928;53.074;6.646;2022-11-21T03:12:26;18.85;;;12.48;;
59145;SDS011;44928;53.074;6.646;2022-11-21T03:14:52;20.75;;;12.60;;
59145;SDS011;44928;53.074;6.646;2022-11-21T03:17:18;20.20;;;12.25;;
59145;SDS011;44928;53.074;6.646;2022-11-21T03:19:44;20.45;;;13.02;;
59145;SDS011;44928;53.074;6.646;2022-11-21T03:22:10;19.77;;;11.57;;
59145;SDS011;44928;53.074;6.646;2022-11-21T03:24:37;19.77;;;12.48;;
59145;SDS011;44928;53.074;6.646;2022-11-21T03:27:03;20.25;;;12.80;;
59145;SDS011;44928;53.074;6.646;2022-11-21T03:29:29;21.88;;;13.25;;
59145;SDS011;44928;53.074;6.646;2022-11-21T03:31:55;20.92;;;12.85;;
59145;SDS011;44928;53.074;6.646;2022-11-21T03:34:20;19.30;;;12.40;;
59145;SDS011;44928;53.074;6.646;2022-11-21T03:36:46;22.35;;;12.50;;
59145;SDS011;44928;53.074;6.646;2022-11-21T03:39:12;18.25;;;11.85;;
59145;SDS011;44928;53.074;6.646;2022-11-21T03:41:38;19.80;;;12.38;;
59145;SDS011;44928;53.074;6.646;2022-11-21T03:44:10;19.38;;;12.25;;
59145;SDS011;44928;53.074;6.646;2022-11-21T03:46:37;20.85;;;12.63;;
59145;SDS011;44928;53.074;6.646;2022-11-21T03:49:05;20.38;;;12.65;;
59145;SDS011;44928;53.074;6.646;2022-11-21T03:51:31;19.08;;;11.55;;
59145;SDS011;44928;53.074;6.646;2022-11-21T03:53:57;20.40;;;12.27;;
59145;SDS011;44928;53.074;6.646;2022-11-21T03:56:23;20.88;;;12.57;;
59145;SDS011;44928;53.074;6.646;2022-11-21T03:58:49;19.90;;;12.38;;
59145;SDS011;44928;53.074;6.646;2022-11-21T04:01:15;22.08;;;12.95;;
59145;SDS011;44928;53.074;6.646;2022-11-21T04:03:41;20.40;;;12.63;;
59145;SDS011;44928;53.074;6.646;2022-11-21T04:06:08;22.80;;;13.52;;
59145;SDS011;44928;53.074;6.646;2022-11-21T04:08:36;18.77;;;11.25;;
59145;SDS011;44928;53.074;6.646;2022-11-21T04:11:02;19.60;;;12.57;;
59145;SDS011;44928;53.074;6.646;2022-11-21T04:13:28;20.45;;;12.13;;
59145;SDS011;44928;53.074;6.646;2022-11-21T04:15:54;18.83;;;12.48;;
59145;SDS011;44928;53.074;6.646;2022-11-21T04:18:20;20.23;;;12.07;;
59145;SDS011;44928;53.074;6.646;2022-11-21T04:20:46;21.33;;;13.18;;
59145;SDS011;44928;53.074;6.646;2022-11-21T04:23:12;21.45;;;12.50;;
59145;SDS011;44928;53.074;6.646;2022-11-21T04:25:38;18.27;;;11.25;;
59145;SDS011;44928;53.074;6.646;2022-11-21T04:28:05;21.95;;;12.73;;
59145;SDS011;44928;53.074;6.646;2022-11-21T04:30:31;20.10;;;12.20;;
59145;SDS011;44928;53.074;6.646;2022-11-21T04:32:58;20.13;;;12.45;;
59145;SDS011;44928;53.074;6.646;2022-11-21T04:35:24;22.50;;;12.98;;
59145;SDS011;44928;53.074;6.646;2022-11-21T04:37:51;21.05;;;12.07;;
59145;SDS011;44928;53.074;6.646;2022-11-21T04:40:17;21.45;;;12.50;;
59145;SDS011;44928;53.074;6.646;2022-11-21T04:42:44;22.90;;;13.10;;
59145;SDS011;44928;53.074;6.646;2022-11-21T04:45:11;21.98;;;12.93;;
59145;SDS011;44928;53.074;6.646;2022-11-21T04:47:38;23.30;;;13.02;;
59145;SDS011;44928;53.074;6.646;2022-11-21T04:50:05;21.30;;;12.57;;
59145;SDS011;44928;53.074;6.646;2022-11-21T04:52:32;20.85;;;12.63;;
59145;SDS011;44928;53.074;6.646;2022-11-21T04:54:59;20.65;;;12.50;;
59145;SDS011;44928;53.074;6.646;2022-11-21T04:57:26;22.40;;;14.15;;
59145;SDS011;44928;53.074;6.646;2022-11-21T04:59:52;19.48;;;12.38;;
59145;SDS011;44928;53.074;6.646;2022-11-21T05:02:18;22.08;;;12.50;;
59145;SDS011;44928;53.074;6.646;2022-11-21T05:04:44;20.80;;;12.38;;
59145;SDS011;44928;53.074;6.646;2022-11-21T05:07:10;19.90;;;11.77;;
59145;SDS011;44928;53.074;6.646;2022-11-21T05:09:36;20.75;;;12.82;;
59145;SDS011;44928;53.074;6.646;2022-11-21T05:12:02;21.63;;;13.35;;
59145;SDS011;44928;53.074;6.646;2022-11-21T05:14:46;23.75;;;14.35;;
59145;SDS011;44928;53.074;6.646;2022-11-21T05:17:12;20.65;;;12.75;;
59145;SDS011;44928;53.074;6.646;2022-11-21T05:19:38;22.95;;;13.93;;
59145;SDS011;44928;53.074;6.646;2022-11-21T05:22:04;19.92;;;12.75;;
59145;SDS011;44928;53.074;6.646;2022-11-21T05:24:29;22.67;;;13.55;;
59145;SDS011;44928;53.074;6.646;2022-11-21T05:26:55;23.83;;;13.48;;
59145;SDS011;44928;53.074;6.646;2022-11-21T05:29:21;21.45;;;13.93;;
59145;SDS011;44928;53.074;6.646;2022-11-21T05:31:47;23.50;;;15.05;;
59145;SDS011;44928;53.074;6.646;2022-11-21T05:34:12;22.98;;;14.50;;
59145;SDS011;44928;53.074;6.646;2022-11-21T05:36:38;22.63;;;12.95;;
59145;SDS011;44928;53.074;6.646;2022-11-21T05:39:04;23.77;;;13.75;;
59145;SDS011;44928;53.074;6.646;2022-11-21T05:41:29;22.85;;;14.35;;
59145;SDS011;44928;53.074;6.646;2022-11-21T05:43:55;21.63;;;13.43;;
59145;SDS011;44928;53.074;6.646;2022-11-21T05:46:22;22.10;;;13.45;;
59145;SDS011;44928;53.074;6.646;2022-11-21T05:48:51;23.13;;;13.85;;
59145;SDS011;44928;53.074;6.646;2022-11-21T05:51:18;23.35;;;13.95;;
59145;SDS011;44928;53.074;6.646;2022-11-21T05:53:44;22.65;;;13.82;;
59145;SDS011;44928;53.074;6.646;2022-11-21T05:56:12;24.25;;;13.95;;
59145;SDS011;44928;53.074;6.646;2022-11-21T05:58:42;21.85;;;13.15;;
59145;SDS011;44928;53.074;6.646;2022-11-21T06:01:09;21.38;;;13.50;;
59145;SDS011;44928;53.074;6.646;2022-11-21T06:03:36;23.60;;;13.80;;
59145;SDS011;44928;53.074;6.646;2022-11-21T06:08:34;31.40;;;20.37;;
59145;SDS011;44928;53.074;6.646;2022-11-21T06:11:02;25.73;;;15.63;;
59145;SDS011;44928;53.074;6.646;2022-11-21T06:13:29;26.90;;;17.33;;
59145;SDS011;44928;53.074;6.646;2022-11-21T06:15:59;21.73;;;13.93;;
59145;SDS011;44928;53.074;6.646;2022-11-21T06:18:27;23.27;;;13.65;;
59145;SDS011;44928;53.074;6.646;2022-11-21T06:20:59;24.33;;;14.43;;
59145;SDS011;44928;53.074;6.646;2022-11-21T06:23:25;23.95;;;14.43;;
59145;SDS011;44928;53.074;6.646;2022-11-21T06:25:57;24.77;;;14.48;;
59145;SDS011;44928;53.074;6.646;2022-11-21T06:28:25;25.08;;;15.40;;
59145;SDS011;44928;53.074;6.646;2022-11-21T06:30:51;23.77;;;13.70;;
59145;SDS011;44928;53.074;6.646;2022-11-21T06:33:17;23.33;;;13.98;;
59145;SDS011;44928;53.074;6.646;2022-11-21T06:35:44;23.50;;;13.95;;
59145;SDS011;44928;53.074;6.646;2022-11-21T06:38:09;23.65;;;13.98;;
59145;SDS011;44928;53.074;6.646;2022-11-21T06:40:37;23.27;;;14.52;;
59145;SDS011;44928;53.074;6.646;2022-11-21T06:43:06;23.42;;;14.80;;
59145;SDS011;44928;53.074;6.646;2022-11-21T06:45:32;21.27;;;13.40;;
59145;SDS011;44928;53.074;6.646;2022-11-21T06:48:00;24.23;;;14.43;;
59145;SDS011;44928;53.074;6.646;2022-11-21T06:50:27;21.90;;;13.73;;
59145;SDS011;44928;53.074;6.646;2022-11-21T06:52:58;24.55;;;15.13;;
59145;SDS011;44928;53.074;6.646;2022-11-21T06:55:25;23.42;;;13.88;;
59145;SDS011;44928;53.074;6.646;2022-11-21T06:57:55;24.30;;;14.00;;
59145;SDS011;44928;53.074;6.646;2022-11-21T07:00:23;23.35;;;14.13;;
59145;SDS011;44928;53.074;6.646;2022-11-21T07:02:49;21.67;;;13.80;;
59145;SDS011;44928;53.074;6.646;2022-11-21T07:05:15;23.23;;;14.00;;
59145;SDS011;44928;53.074;6.646;2022-11-21T07:07:41;26.02;;;14.52;;
59145;SDS011;44928;53.074;6.646;2022-11-21T07:10:07;23.88;;;14.23;;
59145;SDS011;44928;53.074;6.646;2022-11-21T07:12:33;24.13;;;13.60;;
59145;SDS011;44928;53.074;6.646;2022-11-21T07:15:18;21.90;;;13.98;;
59145;SDS011;44928;53.074;6.646;2022-11-21T07:17:44;23.08;;;14.13;;
59145;SDS011;44928;53.074;6.646;2022-11-21T07:20:10;23.02;;;13.68;;
59145;SDS011;44928;53.074;6.646;2022-11-21T07:22:36;23.60;;;13.80;;
59145;SDS011;44928;53.074;6.646;2022-11-21T07:25:02;24.85;;;15.23;;
59145;SDS011;44928;53.074;6.646;2022-11-21T07:27:28;24.95;;;15.50;;
59145;SDS011;44928;53.074;6.646;2022-11-21T07:29:54;39.70;;;19.45;;
59145;SDS011;44928;53.074;6.646;2022-11-21T07:32:25;26.83;;;16.50;;
59145;SDS011;44928;53.074;6.646;2022-11-21T07:34:51;24.73;;;16.27;;
59145;SDS011;44928;53.074;6.646;2022-11-21T07:37:18;24.13;;;14.45;;
59145;SDS011;44928;53.074;6.646;2022-11-21T07:39:43;24.88;;;15.57;;
59145;SDS011;44928;53.074;6.646;2022-11-21T07:42:09;29.10;;;16.73;;
59145;SDS011;44928;53.074;6.646;2022-11-21T07:44:35;23.17;;;14.75;;
59145;SDS011;44928;53.074;6.646;2022-11-21T07:47:01;25.30;;;14.45;;
59145;SDS011;44928;53.074;6.646;2022-11-21T07:49:26;26.85;;;15.18;;
59145;SDS011;44928;53.074;6.646;2022-11-21T07:51:52;25.27;;;15.20;;
59145;SDS011;44928;53.074;6.646;2022-11-21T07:54:18;26.25;;;16.25;;
59145;SDS011;44928;53.074;6.646;2022-11-21T07:56:44;31.88;;;18.88;;
59145;SDS011;44928;53.074;6.646;2022-11-21T07:59:10;27.83;;;15.55;;
59145;SDS011;44928;53.074;6.646;2022-11-21T08:01:35;30.88;;;18.50;;
59145;SDS011;44928;53.074;6.646;2022-11-21T08:04:01;30.83;;;19.33;;
59145;SDS011;44928;53.074;6.646;2022-11-21T08:06:27;29.25;;;17.92;;
59145;SDS011;44928;53.074;6.646;2022-11-21T08:08:53;26.90;;;16.52;;
59145;SDS011;44928;53.074;6.646;2022-11-21T08:11:19;24.95;;;14.93;;
59145;SDS011;44928;53.074;6.646;2022-11-21T08:13:45;27.67;;;15.95;;
59145;SDS011;44928;53.074;6.646;2022-11-21T08:16:11;25.30;;;15.23;;
59145;SDS011;44928;53.074;6.646;2022-11-21T08:18:37;27.60;;;17.08;;
59145;SDS011;44928;53.074;6.646;2022-11-21T08:21:03;24.05;;;15.45;;
59145;SDS011;44928;53.074;6.646;2022-11-21T08:23:30;25.77;;;15.20;;
59145;SDS011;44928;53.074;6.646;2022-11-21T08:25:56;28.35;;;15.25;;
59145;SDS011;44928;53.074;6.646;2022-11-21T08:28:22;29.13;;;16.52;;
59145;SDS011;44928;53.074;6.646;2022-11-21T08:30:48;30.05;;;19.50;;
59145;SDS011;44928;53.074;6.646;2022-11-21T08:33:13;30.83;;;19.25;;
59145;SDS011;44928;53.074;6.646;2022-11-21T08:35:39;32.17;;;21.80;;
59145;SDS011;44928;53.074;6.646;2022-11-21T08:38:06;33.13;;;22.15;;
59145;SDS011;44928;53.074;6.646;2022-11-21T08:40:32;30.30;;;19.33;;
59145;SDS011;44928;53.074;6.646;2022-11-21T08:43:02;27.45;;;16.77;;
59145;SDS011;44928;53.074;6.646;2022-11-21T08:45:30;30.60;;;16.88;;
59145;SDS011;44928;53.074;6.646;2022-11-21T08:47:56;24.38;;;15.93;;
59145;SDS011;44928;53.074;6.646;2022-11-21T08:50:22;27.30;;;16.48;;
59145;SDS011;44928;53.074;6.646;2022-11-21T08:52:48;24.88;;;15.60;;
59145;SDS011;44928;53.074;6.646;2022-11-21T08:55:14;25.35;;;16.48;;
59145;SDS011;44928;53.074;6.646;2022-11-21T08:57:40;24.65;;;15.63;;
59145;SDS011;44928;53.074;6.646;2022-11-21T09:00:07;27.50;;;17.38;;
59145;SDS011;44928;53.074;6.646;2022-11-21T09:02:36;26.55;;;16.13;;
59145;SDS011;44928;53.074;6.646;2022-11-21T09:05:03;25.80;;;16.15;;
59145;SDS011;44928;53.074;6.646;2022-11-21T09:07:29;25.60;;;16.10;;
59145;SDS011;44928;53.074;6.646;2022-11-21T09:09:54;24.90;;;16.10;;
59145;SDS011;44928;53.074;6.646;2022-11-21T09:12:20;28.58;;;17.00;;
59145;SDS011;44928;53.074;6.646;2022-11-21T09:14:46;26.02;;;16.25;;
59145;SDS011;44928;53.074;6.646;2022-11-21T09:17:30;25.42;;;15.95;;
59145;SDS011;44928;53.074;6.646;2022-11-21T09:20:15;25.58;;;15.10;;
59145;SDS011;44928;53.074;6.646;2022-11-21T09:22:40;30.25;;;16.67;;
59145;SDS011;44928;53.074;6.646;2022-11-21T09:25:06;26.55;;;16.45;;
59145;SDS011;44928;53.074;6.646;2022-11-21T09:27:32;28.27;;;17.40;;
59145;SDS011;44928;53.074;6.646;2022-11-21T09:29:58;26.52;;;16.42;;
59145;SDS011;44928;53.074;6.646;2022-11-21T09:32:24;26.95;;;16.20;;
59145;SDS011;44928;53.074;6.646;2022-11-21T09:34:49;25.60;;;15.90;;
59145;SDS011;44928;53.074;6.646;2022-11-21T09:37:15;25.83;;;15.52;;
59145;SDS011;44928;53.074;6.646;2022-11-21T09:39:41;26.27;;;15.98;;
59145;SDS011;44928;53.074;6.646;2022-11-21T09:42:30;26.08;;;16.50;;
59145;SDS011;44928;53.074;6.646;2022-11-21T09:48:07;28.13;;;16.77;;
59145;SDS011;44928;53.074;6.646;2022-11-21T09:50:37;26.50;;;17.55;;
59145;SDS011;44928;53.074;6.646;2022-11-21T09:56:06;26.70;;;16.05;;
59145;SDS011;44928;53.074;6.646;2022-11-21T09:58:37;26.38;;;16.58;;
59145;SDS011;44928;53.074;6.646;2022-11-21T10:01:14;26.05;;;17.02;;
59145;SDS011;44928;53.074;6.646;2022-11-21T10:03:50;25.65;;;15.70;;
59145;SDS011;44928;53.074;6.646;2022-11-21T10:06:18;28.63;;;16.33;;
59145;SDS011;44928;53.074;6.646;2022-11-21T10:16:42;24.38;;;15.35;;
59145;SDS011;44928;53.074;6.646;2022-11-21T10:22:18;21.70;;;13.45;;
59145;SDS011;44928;53.074;6.646;2022-11-21T10:24:55;23.35;;;14.63;;
59145;SDS011;44928;53.074;6.646;2022-11-21T10:29:57;25.10;;;16.17;;
59145;SDS011;44928;53.074;6.646;2022-11-21T10:32:38;24.10;;;14.65;;
59145;SDS011;44928;53.074;6.646;2022-11-21T10:35:14;23.33;;;14.20;;
59145;SDS011;44928;53.074;6.646;2022-11-21T10:37:51;24.27;;;14.85;;
59145;SDS011;44928;53.074;6.646;2022-11-21T10:40:39;23.13;;;14.05;;
59145;SDS011;44928;53.074;6.646;2022-11-21T10:43:30;24.23;;;14.05;;
59145;SDS011;44928;53.074;6.646;2022-11-21T10:48:46;23.35;;;13.70;;
59145;SDS011;44928;53.074;6.646;2022-11-21T10:51:44;22.50;;;13.63;;
59145;SDS011;44928;53.074;6.646;2022-11-21T10:54:21;22.55;;;13.82;;
59145;SDS011;44928;53.074;6.646;2022-11-21T10:57:12;22.20;;;14.18;;
59145;SDS011;44928;53.074;6.646;2022-11-21T11:00:04;23.08;;;13.40;;
59145;SDS011;44928;53.074;6.646;2022-11-21T11:05:25;21.30;;;13.15;;
59145;SDS011;44928;53.074;6.646;2022-11-21T11:08:06;22.90;;;13.43;;
59145;SDS011;44928;53.074;6.646;2022-11-21T11:10:37;21.42;;;13.93;;
59145;SDS011;44928;53.074;6.646;2022-11-21T11:13:19;19.27;;;12.35;;
59145;SDS011;44928;53.074;6.646;2022-11-21T11:18:38;24.90;;;14.18;;
59145;SDS011;44928;53.074;6.646;2022-11-21T11:21:17;21.08;;;12.95;;
59145;SDS011;44928;53.074;6.646;2022-11-21T11:23:54;23.10;;;14.05;;
59145;SDS011;44928;53.074;6.646;2022-11-21T11:29:27;20.48;;;13.45;;
59145;SDS011;44928;53.074;6.646;2022-11-21T11:34:45;21.42;;;13.30;;
59145;SDS011;44928;53.074;6.646;2022-11-21T11:40:18;21.73;;;12.85;;
59145;SDS011;44928;53.074;6.646;2022-11-21T11:46:31;21.63;;;12.88;;
59145;SDS011;44928;53.074;6.646;2022-11-21T11:52:29;20.30;;;12.77;;
59145;SDS011;44928;53.074;6.646;2022-11-21T11:55:28;20.15;;;11.95;;
59145;SDS011;44928;53.074;6.646;2022-11-21T11:58:19;20.00;;;12.07;;
59145;SDS011;44928;53.074;6.646;2022-11-21T12:00:55;18.55;;;11.52;;
59145;SDS011;44928;53.074;6.646;2022-11-21T12:08:45;19.88;;;11.57;;
59145;SDS011;44928;53.074;6.646;2022-11-21T12:11:44;17.48;;;11.30;;
59145;SDS011;44928;53.074;6.646;2022-11-21T12:20:51;18.05;;;10.23;;
59145;SDS011;44928;53.074;6.646;2022-11-21T12:40:01;16.13;;;9.15;;
59145;SDS011;44928;53.074;6.646;2022-11-21T12:45:30;15.68;;;8.27;;
59145;SDS011;44928;53.074;6.646;2022-11-21T12:57:08;15.43;;;8.80;;
59145;SDS011;44928;53.074;6.646;2022-11-21T12:59:41;15.52;;;8.50;;
59145;SDS011;44928;53.074;6.646;2022-11-21T13:02:36;15.13;;;9.25;;
59145;SDS011;44928;53.074;6.646;2022-11-21T13:05:12;13.88;;;7.70;;
59145;SDS011;44928;53.074;6.646;2022-11-21T13:07:45;14.63;;;8.48;;
59145;SDS011;44928;53.074;6.646;2022-11-21T13:10:12;15.85;;;8.50;;
59145;SDS011;44928;53.074;6.646;2022-11-21T13:15:52;15.45;;;8.65;;
59145;SDS011;44928;53.074;6.646;2022-11-21T13:18:30;14.63;;;8.40;;
59145;SDS011;44928;53.074;6.646;2022-11-21T13:24:05;15.55;;;8.77;;
59145;SDS011;44928;53.074;6.646;2022-11-21T13:29:13;15.05;;;8.95;;
59145;SDS011;44928;53.074;6.646;2022-11-21T13:31:39;15.27;;;9.13;;
59145;SDS011;44928;53.074;6.646;2022-11-21T13:36:59;17.35;;;10.07;;
59145;SDS011;44928;53.074;6.646;2022-11-21T13:39:26;16.42;;;10.63;;
59145;SDS011;44928;53.074;6.646;2022-11-21T14:03:45;17.35;;;10.90;;
59145;SDS011;44928;53.074;6.646;2022-11-21T14:06:35;17.58;;;10.52;;
59145;SDS011;44928;53.074;6.646;2022-11-21T14:09:21;17.38;;;10.90;;
59145;SDS011;44928;53.074;6.646;2022-11-21T14:19:53;20.40;;;12.73;;
59145;SDS011;44928;53.074;6.646;2022-11-21T14:25:05;19.20;;;11.88;;
59145;SDS011;44928;53.074;6.646;2022-11-21T14:27:34;23.63;;;14.18;;
59145;SDS011;44928;53.074;6.646;2022-11-21T14:30:02;24.00;;;15.13;;
59145;SDS011;44928;53.074;6.646;2022-11-21T14:32:29;22.48;;;13.70;;
59145;SDS011;44928;53.074;6.646;2022-11-21T14:37:44;21.00;;;13.75;;
59145;SDS011;44928;53.074;6.646;2022-11-21T14:40:11;21.98;;;14.40;;
59145;SDS011;44928;53.074;6.646;2022-11-21T14:42:43;25.02;;;14.90;;
59145;SDS011;44928;53.074;6.646;2022-11-21T14:45:16;25.98;;;16.40;;
59145;SDS011;44928;53.074;6.646;2022-11-21T14:47:45;25.05;;;15.98;;
59145;SDS011;44928;53.074;6.646;2022-11-21T14:50:26;25.10;;;16.42;;
59145;SDS011;44928;53.074;6.646;2022-11-21T14:52:53;26.13;;;15.85;;
59145;SDS011;44928;53.074;6.646;2022-11-21T14:55:23;25.95;;;16.55;;
59145;SDS011;44928;53.074;6.646;2022-11-21T14:57:54;26.65;;;16.00;;
59145;SDS011;44928;53.074;6.646;2022-11-21T15:00:23;29.38;;;17.23;;
59145;SDS011;44928;53.074;6.646;2022-11-21T15:02:54;27.63;;;16.90;;
59145;SDS011;44928;53.074;6.646;2022-11-21T15:05:26;28.55;;;17.58;;
59145;SDS011;44928;53.074;6.646;2022-11-21T15:07:57;28.20;;;17.83;;
59145;SDS011;44928;53.074;6.646;2022-11-21T15:10:28;27.80;;;17.77;;
59145;SDS011;44928;53.074;6.646;2022-11-21T15:12:59;29.27;;;18.42;;
59145;SDS011;44928;53.074;6.646;2022-11-21T15:15:31;28.75;;;17.48;;
59145;SDS011;44928;53.074;6.646;2022-11-21T15:18:12;28.73;;;17.70;;
59145;SDS011;44928;53.074;6.646;2022-11-21T15:21:07;32.47;;;18.63;;
59145;SDS011;44928;53.074;6.646;2022-11-21T15:23:38;28.98;;;18.33;;
59145;SDS011;44928;53.074;6.646;2022-11-21T15:26:27;31.05;;;18.95;;
59145;SDS011;44928;53.074;6.646;2022-11-21T15:28:59;32.17;;;18.17;;
59145;SDS011;44928;53.074;6.646;2022-11-21T15:31:25;32.25;;;19.38;;
59145;SDS011;44928;53.074;6.646;2022-11-21T15:36:25;33.13;;;19.15;;
59145;SDS011;44928;53.074;6.646;2022-11-21T15:41:33;33.15;;;19.35;;
59145;SDS011;44928;53.074;6.646;2022-11-21T15:48:52;35.88;;;19.60;;
59145;SDS011;44928;53.074;6.646;2022-11-21T15:53:54;36.85;;;19.55;;
59145;SDS011;44928;53.074;6.646;2022-11-21T15:56:20;40.35;;;19.95;;
59145;SDS011;44928;53.074;6.646;2022-11-21T15:58:46;37.72;;;19.60;;
59145;SDS011;44928;53.074;6.646;2022-11-21T16:03:44;41.10;;;20.02;;
59145;SDS011;44928;53.074;6.646;2022-11-21T16:06:14;35.35;;;18.98;;
59145;SDS011;44928;53.074;6.646;2022-11-21T16:08:41;39.55;;;21.98;;
59145;SDS011;44928;53.074;6.646;2022-11-21T16:11:10;38.15;;;20.35;;
59145;SDS011;44928;53.074;6.646;2022-11-21T16:13:40;39.85;;;20.30;;
59145;SDS011;44928;53.074;6.646;2022-11-21T16:16:08;36.90;;;20.63;;
59145;SDS011;44928;53.074;6.646;2022-11-21T16:18:35;44.15;;;20.85;;
59145;SDS011;44928;53.074;6.646;2022-11-21T16:21:05;43.75;;;21.73;;
59145;SDS011;44928;53.074;6.646;2022-11-21T16:23:32;39.03;;;21.20;;
59145;SDS011;44928;53.074;6.646;2022-11-21T16:25:58;37.25;;;19.77;;
59145;SDS011;44928;53.074;6.646;2022-11-21T16:28:24;38.20;;;19.83;;
59145;SDS011;44928;53.074;6.646;2022-11-21T16:30:50;44.08;;;21.33;;
59145;SDS011;44928;53.074;6.646;2022-11-21T16:33:15;49.58;;;23.52;;
59145;SDS011;44928;53.074;6.646;2022-11-21T16:35:41;45.65;;;22.63;;
59145;SDS011;44928;53.074;6.646;2022-11-21T16:38:07;46.50;;;23.45;;
59145;SDS011;44928;53.074;6.646;2022-11-21T16:40:34;41.17;;;21.15;;
59145;SDS011;44928;53.074;6.646;2022-11-21T16:43:10;41.78;;;21.48;;
59145;SDS011;44928;53.074;6.646;2022-11-21T16:45:37;42.38;;;21.05;;
59145;SDS011;44928;53.074;6.646;2022-11-21T16:48:04;40.67;;;21.55;;
59145;SDS011;44928;53.074;6.646;2022-11-21T16:50:30;43.63;;;20.73;;
59145;SDS011;44928;53.074;6.646;2022-11-21T16:52:56;43.38;;;21.42;;
59145;SDS011;44928;53.074;6.646;2022-11-21T16:55:22;42.30;;;21.25;;
59145;SDS011;44928;53.074;6.646;2022-11-21T16:57:48;37.33;;;19.67;;
59145;SDS011;44928;53.074;6.646;2022-11-21T17:00:14;44.83;;;21.00;;
59145;SDS011;44928;53.074;6.646;2022-11-21T17:02:40;42.72;;;20.85;;
59145;SDS011;44928;53.074;6.646;2022-11-21T17:05:06;43.25;;;20.85;;
59145;SDS011;44928;53.074;6.646;2022-11-21T17:07:32;41.22;;;20.55;;
59145;SDS011;44928;53.074;6.646;2022-11-21T17:09:59;48.50;;;21.15;;
59145;SDS011;44928;53.074;6.646;2022-11-21T17:12:24;48.75;;;22.20;;
59145;SDS011;44928;53.074;6.646;2022-11-21T17:14:50;50.47;;;21.88;;
59145;SDS011;44928;53.074;6.646;2022-11-21T17:17:16;49.75;;;20.42;;
59145;SDS011;44928;53.074;6.646;2022-11-21T17:19:43;49.90;;;21.13;;